createdAt,value
2022-11-13T00:00:01.431Z,3.50
2022-11-13T00:02:27.899Z,3.55
2022-11-13T00:04:54.498Z,3.58
2022-11-13T00:07:20.961Z,3.67
2022-11-13T00:09:47.414Z,3.64
2022-11-13T00:12:13.989Z,3.56
2022-11-13T00:14:40.885Z,3.52
2022-11-13T00:17:07.286Z,3.51
2022-11-13T00:19:33.719Z,3.63
2022-11-13T00:22:00.423Z,3.67
2022-11-13T00:24:27.080Z,3.74
2022-11-13T00:26:53.505Z,3.61
2022-11-13T00:29:19.902Z,3.49
2022-11-13T00:31:46.322Z,3.46
2022-11-13T00:34:45.914Z,3.30
2022-11-13T00:36:59.186Z,3.32
2022-11-13T00:39:25.603Z,3.36
2022-11-13T00:41:52.028Z,3.48
2022-11-13T00:44:18.421Z,3.57
2022-11-13T00:46:44.843Z,3.50
2022-11-13T00:49:11.253Z,3.58
2022-11-13T00:51:37.641Z,3.67
2022-11-13T00:54:04.164Z,3.76
2022-11-13T00:56:30.744Z,3.77
2022-11-13T00:58:57.196Z,3.79
2022-11-13T01:01:23.648Z,3.90
2022-11-13T01:03:50.077Z,3.97
2022-11-13T01:06:25.670Z,4.03
2022-11-13T01:08:55.953Z,4.05
2022-11-13T01:11:24.896Z,4.01
2022-11-13T01:13:53.082Z,4.00
2022-11-13T01:16:22.814Z,4.02
2022-11-13T01:18:49.379Z,4.16
2022-11-13T01:21:21.056Z,4.24
2022-11-13T01:23:47.782Z,4.26
2022-11-13T01:26:28.529Z,4.31
2022-11-13T01:28:56.800Z,4.40
2022-11-13T01:31:24.713Z,4.45
2022-11-13T01:33:52.007Z,4.47
2022-11-13T01:36:22.167Z,4.52
2022-11-13T01:38:49.503Z,4.60
2022-11-13T01:41:34.512Z,4.63
2022-11-13T01:44:01.558Z,4.71
2022-11-13T01:46:35.445Z,4.63
2022-11-13T01:49:15.598Z,4.52
2022-11-13T01:51:57.048Z,4.62
2022-11-13T01:54:27.718Z,4.64
2022-11-13T01:56:55.201Z,4.63
2022-11-13T01:59:28.811Z,4.67
2022-11-13T02:01:56.553Z,4.58
2022-11-13T02:04:23.416Z,4.61
2022-11-13T02:06:55.680Z,4.71
2022-11-13T02:09:27.743Z,4.67
2022-11-13T02:11:54.699Z,4.70
2022-11-13T02:14:23.381Z,4.70
2022-11-13T02:16:53.463Z,4.78
2022-11-13T02:19:26.434Z,4.92
2022-11-13T02:22:03.266Z,5.00
2022-11-13T02:24:32.997Z,4.94
2022-11-13T02:27:04.768Z,4.94
2022-11-13T02:29:31.921Z,5.00
2022-11-13T02:31:58.333Z,5.12
2022-11-13T02:34:24.721Z,5.01
2022-11-13T02:36:51.277Z,4.86
2022-11-13T02:39:17.716Z,4.81
2022-11-13T02:41:44.184Z,4.98
2022-11-13T02:44:10.751Z,5.16
2022-11-13T02:46:37.444Z,5.04
2022-11-13T02:49:04.871Z,5.12
2022-11-13T02:51:31.274Z,5.02
2022-11-13T02:53:57.722Z,4.98
2022-11-13T02:56:24.129Z,5.02
2022-11-13T02:58:50.576Z,4.93
2022-11-13T03:01:17.081Z,5.22
2022-11-13T03:03:58.972Z,5.19
2022-11-13T03:06:25.486Z,4.96
2022-11-13T03:08:51.897Z,4.81
2022-11-13T03:11:18.388Z,4.56
2022-11-13T03:13:44.799Z,4.53
2022-11-13T03:16:16.524Z,4.60
2022-11-13T03:18:42.996Z,4.62
2022-11-13T03:21:13.037Z,4.66
2022-11-13T03:23:41.376Z,4.63
2022-11-13T03:26:09.045Z,4.41
2022-11-13T03:28:36.346Z,4.44
2022-11-13T03:31:04.494Z,4.34
2022-11-13T03:33:31.342Z,4.28
2022-11-13T03:35:57.788Z,4.32
2022-11-13T03:38:24.684Z,4.26
2022-11-13T03:40:51.767Z,4.26
2022-11-13T03:43:18.726Z,4.32
2022-11-13T03:45:46.571Z,4.22
2022-11-13T03:48:15.149Z,4.21
2022-11-13T03:50:47.717Z,4.08
2022-11-13T03:53:14.656Z,3.97
2022-11-13T03:55:41.923Z,4.03
2022-11-13T03:58:08.466Z,3.91
2022-11-13T04:00:36.298Z,3.92
2022-11-13T04:03:02.930Z,3.84
2022-11-13T04:05:29.422Z,3.84
2022-11-13T04:07:55.859Z,3.73
2022-11-13T04:10:22.518Z,3.70
2022-11-13T04:12:48.996Z,3.80
2022-11-13T04:15:15.525Z,3.83
2022-11-13T04:17:42.040Z,3.85
2022-11-13T04:20:09.685Z,3.98
2022-11-13T04:22:36.738Z,4.64
2022-11-13T04:25:04.065Z,4.86
2022-11-13T04:27:30.574Z,4.97
2022-11-13T04:29:57.151Z,4.91
2022-11-13T04:32:23.732Z,4.76
2022-11-13T04:34:50.152Z,4.66
2022-11-13T04:37:16.586Z,4.55
2022-11-13T04:39:43.018Z,4.52
2022-11-13T04:42:30.256Z,4.43
2022-11-13T04:44:56.659Z,4.30
2022-11-13T04:47:23.258Z,4.32
2022-11-13T04:49:49.726Z,4.39
2022-11-13T04:52:16.351Z,4.61
2022-11-13T04:54:42.765Z,5.03
2022-11-13T04:57:09.202Z,5.13
2022-11-13T04:59:35.593Z,4.78
2022-11-13T05:02:02.266Z,4.55
2022-11-13T05:04:28.792Z,4.39
2022-11-13T05:06:55.244Z,4.41
2022-11-13T05:09:21.674Z,4.42
2022-11-13T05:11:48.158Z,4.46
2022-11-13T05:14:14.744Z,4.48
2022-11-13T05:16:41.172Z,4.53
2022-11-13T05:19:07.990Z,4.83
2022-11-13T05:21:36.280Z,4.83
2022-11-13T05:24:02.879Z,5.16
2022-11-13T05:26:29.900Z,4.96
2022-11-13T05:29:00.571Z,4.82
2022-11-13T05:31:27.500Z,4.79
2022-11-13T05:33:55.309Z,5.07
2022-11-13T05:36:22.993Z,5.24
2022-11-13T05:38:49.673Z,5.48
2022-11-13T05:41:17.451Z,5.62
2022-11-13T05:43:44.111Z,5.63
2022-11-13T05:46:13.981Z,5.65
2022-11-13T05:48:41.296Z,5.63
2022-11-13T05:51:10.229Z,5.44
2022-11-13T05:53:37.688Z,5.39
2022-11-13T05:56:16.959Z,5.37
2022-11-13T05:58:44.342Z,5.43
2022-11-13T06:01:12.129Z,5.42
2022-11-13T06:03:39.227Z,5.51
2022-11-13T06:06:07.377Z,5.49
2022-11-13T06:08:33.985Z,5.46
2022-11-13T06:11:08.977Z,5.37
2022-11-13T06:13:35.898Z,5.39
2022-11-13T06:16:05.633Z,5.43
2022-11-13T06:18:32.614Z,5.52
2022-11-13T06:21:09.174Z,5.60
2022-11-13T06:23:38.002Z,5.64
2022-11-13T06:26:10.291Z,5.67
2022-11-13T06:28:37.241Z,5.74
2022-11-13T06:31:12.361Z,5.73
2022-11-13T06:33:40.482Z,5.72
2022-11-13T06:36:11.511Z,5.65
2022-11-13T06:38:39.590Z,5.64
2022-11-13T06:41:07.406Z,5.62
2022-11-13T06:43:33.950Z,5.48
2022-11-13T06:46:04.596Z,5.38
2022-11-13T06:48:31.730Z,5.46
2022-11-13T06:51:03.273Z,5.53
2022-11-13T06:53:30.050Z,5.68
2022-11-13T06:55:56.812Z,5.82
2022-11-13T06:58:23.517Z,5.85
2022-11-13T07:00:50.002Z,5.75
2022-11-13T07:03:18.897Z,5.76
2022-11-13T07:05:45.655Z,5.80
2022-11-13T07:08:12.710Z,5.95
2022-11-13T07:10:39.867Z,5.97
2022-11-13T07:13:06.977Z,5.99
2022-11-13T07:15:38.526Z,6.03
2022-11-13T07:18:06.467Z,6.29
2022-11-13T07:20:33.982Z,6.34
2022-11-13T07:23:02.466Z,6.37
2022-11-13T07:25:29.357Z,6.35
2022-11-13T07:27:55.883Z,6.47
2022-11-13T07:30:22.774Z,6.40
2022-11-13T07:32:49.203Z,6.38
2022-11-13T07:35:16.807Z,6.28
2022-11-13T07:37:44.277Z,6.27
2022-11-13T07:40:11.750Z,6.20
2022-11-13T07:42:38.784Z,6.30
2022-11-13T07:45:06.057Z,6.20
2022-11-13T07:47:32.532Z,6.13
2022-11-13T07:50:06.742Z,6.09
2022-11-13T07:52:36.137Z,6.12
2022-11-13T07:55:02.606Z,6.15
2022-11-13T07:57:29.004Z,6.22
2022-11-13T07:59:55.436Z,6.24
2022-11-13T08:02:26.229Z,6.20
2022-11-13T08:04:53.199Z,6.27
2022-11-13T08:07:19.696Z,6.38
2022-11-13T08:09:46.202Z,6.20
2022-11-13T08:12:12.611Z,6.12
2022-11-13T08:14:39.013Z,6.07
2022-11-13T08:17:05.423Z,6.07
2022-11-13T08:19:31.838Z,6.16
2022-11-13T08:21:58.314Z,6.17
2022-11-13T08:24:24.809Z,6.30
2022-11-13T08:26:51.272Z,6.37
2022-11-13T08:29:17.770Z,6.40
2022-11-13T08:31:44.379Z,6.76
2022-11-13T08:34:10.994Z,6.61
2022-11-13T08:36:37.466Z,6.86
2022-11-13T08:39:03.969Z,6.87
2022-11-13T08:41:30.369Z,7.05
2022-11-13T08:43:56.802Z,7.18
2022-11-13T08:46:23.202Z,7.18
2022-11-13T08:48:49.599Z,7.24
2022-11-13T08:51:16.079Z,7.27
2022-11-13T08:53:42.491Z,7.36
2022-11-13T08:56:08.909Z,7.36
2022-11-13T08:58:35.382Z,7.46
2022-11-13T09:01:03.409Z,7.58
2022-11-13T09:03:30.129Z,7.61
2022-11-13T09:05:56.626Z,7.74
2022-11-13T09:08:23.024Z,7.60
2022-11-13T09:10:49.435Z,7.61
2022-11-13T09:13:15.874Z,7.54
2022-11-13T09:15:42.348Z,7.72
2022-11-13T09:18:09.976Z,7.87
2022-11-13T09:20:36.462Z,8.23
2022-11-13T09:23:07.709Z,7.88
2022-11-13T09:25:37.919Z,7.74
2022-11-13T09:28:05.771Z,7.96
2022-11-13T09:30:32.244Z,8.03
2022-11-13T09:33:00.901Z,8.04
2022-11-13T09:35:34.402Z,8.22
2022-11-13T09:38:11.316Z,8.36
2022-11-13T09:40:41.821Z,8.24
2022-11-13T09:43:28.363Z,8.36
2022-11-13T09:45:59.769Z,8.71
2022-11-13T09:48:32.519Z,8.64
2022-11-13T09:51:01.888Z,8.88
2022-11-13T09:53:35.068Z,8.70
2022-11-13T09:56:38.815Z,8.76
2022-11-13T09:59:16.612Z,8.55
2022-11-13T10:02:10.903Z,9.02
2022-11-13T10:05:05.095Z,8.89
2022-11-13T10:07:44.643Z,8.49
2022-11-13T10:10:22.031Z,8.17
2022-11-13T10:12:52.560Z,8.17
2022-11-13T10:15:20.470Z,8.48
2022-11-13T10:17:56.343Z,8.49
2022-11-13T10:20:25.457Z,8.62
2022-11-13T10:22:59.058Z,8.38
2022-11-13T10:25:30.560Z,8.39
2022-11-13T10:28:00.121Z,8.30
2022-11-13T10:30:27.695Z,8.23
2022-11-13T10:32:54.133Z,8.39
2022-11-13T10:35:38.825Z,8.58
2022-11-13T10:38:08.830Z,8.42
2022-11-13T10:40:38.254Z,8.34
2022-11-13T10:43:22.333Z,8.37
2022-11-13T10:45:56.262Z,8.10
2022-11-13T10:48:26.365Z,8.20
2022-11-13T10:51:01.498Z,8.05
2022-11-13T10:53:40.579Z,7.96
2022-11-13T10:56:33.596Z,8.03
2022-11-13T10:59:17.588Z,7.99
2022-11-13T11:01:46.823Z,7.88
2022-11-13T11:04:24.602Z,8.08
2022-11-13T11:09:40.270Z,8.17
2022-11-13T11:12:19.024Z,8.26
2022-11-13T11:14:59.750Z,8.12
2022-11-13T11:17:46.702Z,7.99
2022-11-13T11:20:42.785Z,8.41
2022-11-13T11:23:36.822Z,8.29
2022-11-13T11:26:11.437Z,8.43
2022-11-13T11:28:47.238Z,8.37
2022-11-13T11:31:26.639Z,8.60
2022-11-13T11:34:02.505Z,8.41
2022-11-13T11:36:48.761Z,8.45
2022-11-13T11:39:34.220Z,8.31
2022-11-13T11:42:15.451Z,8.17
2022-11-13T11:45:01.233Z,7.94
2022-11-13T11:47:27.873Z,7.91
2022-11-13T11:49:55.231Z,8.14
2022-11-13T11:52:53.119Z,8.13
2022-11-13T11:55:57.438Z,8.08
2022-11-13T11:58:39.077Z,7.74
2022-11-13T12:01:15.303Z,7.82
2022-11-13T12:04:17.550Z,8.26
2022-11-13T12:07:01.731Z,7.93
2022-11-13T12:09:35.470Z,8.08
2022-11-13T12:12:11.222Z,8.21
2022-11-13T12:15:14.905Z,8.03
2022-11-13T12:17:56.042Z,7.85
2022-11-13T12:20:29.124Z,7.84
2022-11-13T12:22:55.473Z,7.78
2022-11-13T12:25:35.760Z,8.03
2022-11-13T12:28:19.889Z,8.07
2022-11-13T12:31:01.510Z,8.55
2022-11-13T12:34:01.234Z,8.80
2022-11-13T12:36:28.859Z,8.67
2022-11-13T12:39:14.147Z,8.75
2022-11-13T12:41:51.900Z,8.63
2022-11-13T12:44:27.233Z,8.31
2022-11-13T12:46:55.688Z,8.29
2022-11-13T12:49:29.866Z,8.33
2022-11-13T12:51:59.146Z,8.37
2022-11-13T12:54:31.442Z,8.25
2022-11-13T12:57:13.057Z,8.26
2022-11-13T12:59:42.660Z,8.50
2022-11-13T13:02:29.992Z,8.30
2022-11-13T13:05:21.518Z,8.36
2022-11-13T13:08:09.648Z,8.17
2022-11-13T13:10:45.012Z,8.10
2022-11-13T13:13:24.887Z,8.19
2022-11-13T13:16:00.341Z,8.08
2022-11-13T13:18:31.071Z,8.09
2022-11-13T13:21:13.274Z,8.21
2022-11-13T13:23:42.443Z,8.24
2022-11-13T13:26:21.592Z,8.25
2022-11-13T13:28:53.782Z,8.33
2022-11-13T13:31:31.667Z,8.14
2022-11-13T13:34:34.673Z,8.42
2022-11-13T13:37:16.808Z,8.59
2022-11-13T13:40:02.519Z,8.49
2022-11-13T13:43:10.803Z,8.42
2022-11-13T13:45:50.376Z,8.39
2022-11-13T13:48:25.268Z,8.40
2022-11-13T13:50:52.478Z,8.66
2022-11-13T13:53:23.495Z,8.65
2022-11-13T13:55:53.115Z,8.45
2022-11-13T13:58:26.680Z,8.21
2022-11-13T14:01:19.287Z,8.37
2022-11-13T14:03:46.571Z,8.39
2022-11-13T14:06:20.632Z,8.39
2022-11-13T14:08:48.400Z,8.32
2022-11-13T14:11:29.850Z,8.36
2022-11-13T14:14:07.329Z,8.29
2022-11-13T14:16:33.842Z,8.18
2022-11-13T14:19:05.049Z,8.56
2022-11-13T14:21:31.686Z,8.68
2022-11-13T14:24:01.399Z,8.74
2022-11-13T14:26:29.510Z,8.39
2022-11-13T14:29:01.376Z,8.30
2022-11-13T14:31:34.122Z,8.35
2022-11-13T14:34:19.859Z,8.33
2022-11-13T14:36:52.083Z,8.65
2022-11-13T14:39:31.933Z,8.56
2022-11-13T14:42:00.473Z,8.47
2022-11-13T14:44:33.138Z,8.53
2022-11-13T14:47:06.657Z,8.29
2022-11-13T14:49:36.283Z,8.26
2022-11-13T14:52:04.061Z,8.34
2022-11-13T14:55:00.234Z,8.36
2022-11-13T14:57:24.423Z,8.38
2022-11-13T14:59:59.143Z,8.45
2022-11-13T15:02:25.806Z,8.58
2022-11-13T15:04:55.268Z,8.49
2022-11-13T15:07:34.306Z,8.61
2022-11-13T15:10:03.602Z,8.67
2022-11-13T15:12:30.114Z,8.72
2022-11-13T15:14:56.764Z,8.65
2022-11-13T15:17:23.910Z,8.85
2022-11-13T15:19:53.676Z,8.64
2022-11-13T15:22:27.127Z,8.56
2022-11-13T15:24:54.655Z,8.49
2022-11-13T15:27:21.062Z,8.42
2022-11-13T15:29:47.488Z,8.45
2022-11-13T15:32:15.234Z,8.38
2022-11-13T15:34:41.958Z,8.58
2022-11-13T15:37:14.267Z,8.45
2022-11-13T15:39:41.005Z,8.60
2022-11-13T15:42:13.319Z,8.88
2022-11-13T15:44:40.675Z,8.84
2022-11-13T15:47:26.908Z,8.88
2022-11-13T15:50:12.492Z,8.79
2022-11-13T15:52:42.627Z,8.59
2022-11-13T15:55:27.518Z,8.66
2022-11-13T15:57:55.502Z,8.45
2022-11-13T16:00:25.511Z,8.64
2022-11-13T16:02:56.622Z,8.57
2022-11-13T16:05:29.037Z,8.43
2022-11-13T16:07:55.899Z,8.42
2022-11-13T16:10:25.130Z,8.39
2022-11-13T16:12:52.584Z,8.67
2022-11-13T16:15:19.795Z,8.59
2022-11-13T16:17:51.858Z,8.49
2022-11-13T16:20:18.656Z,8.45
2022-11-13T16:22:45.806Z,8.47
2022-11-13T16:25:18.502Z,8.57
2022-11-13T16:27:45.621Z,8.70
2022-11-13T16:30:21.121Z,8.64
2022-11-13T16:32:47.726Z,8.58
2022-11-13T16:35:16.142Z,8.48
2022-11-13T16:37:42.909Z,8.58
2022-11-13T16:40:18.066Z,8.65
2022-11-13T16:42:44.597Z,8.71
2022-11-13T16:45:11.012Z,8.51
2022-11-13T16:47:37.418Z,8.54
2022-11-13T16:50:04.050Z,8.45
2022-11-13T16:52:31.797Z,8.49
2022-11-13T16:55:01.084Z,8.76
2022-11-13T16:57:31.589Z,8.69
2022-11-13T16:59:58.023Z,8.49
2022-11-13T17:02:24.415Z,8.52
2022-11-13T17:04:50.845Z,8.61
2022-11-13T17:07:17.298Z,8.62
2022-11-13T17:09:45.174Z,8.65
2022-11-13T17:12:11.750Z,8.83
2022-11-13T17:14:38.761Z,8.77
2022-11-13T17:17:07.102Z,8.59
2022-11-13T17:19:33.621Z,8.54
2022-11-13T17:22:00.359Z,8.66
2022-11-13T17:24:26.856Z,8.55
2022-11-13T17:26:53.309Z,8.51
2022-11-13T17:29:19.741Z,8.49
2022-11-13T17:31:46.131Z,8.62
2022-11-13T17:34:12.562Z,8.60
2022-11-13T17:36:38.976Z,8.58
2022-11-13T17:39:05.576Z,8.48
2022-11-13T17:41:32.191Z,8.47
2022-11-13T17:44:01.217Z,8.51
2022-11-13T17:46:28.153Z,8.61
2022-11-13T17:48:54.749Z,8.50
2022-11-13T17:51:21.351Z,8.58
2022-11-13T17:53:47.814Z,8.48
2022-11-13T17:56:14.492Z,8.56
2022-11-13T17:58:42.722Z,8.59
2022-11-13T18:01:14.230Z,8.61
2022-11-13T18:03:41.147Z,8.62
2022-11-13T18:06:11.213Z,8.75
2022-11-13T18:08:40.978Z,8.69
2022-11-13T18:11:09.118Z,8.59
2022-11-13T18:13:36.338Z,8.71
2022-11-13T18:16:05.211Z,8.89
2022-11-13T18:18:31.669Z,8.72
2022-11-13T18:20:58.242Z,8.82
2022-11-13T18:23:24.730Z,8.68
2022-11-13T18:25:51.173Z,8.66
2022-11-13T18:28:17.595Z,8.77
2022-11-13T18:30:44.874Z,8.77
2022-11-13T18:33:12.021Z,8.97
2022-11-13T18:35:38.656Z,8.93
2022-11-13T18:38:05.159Z,8.87
2022-11-13T18:40:31.630Z,8.83
2022-11-13T18:42:58.028Z,8.78
2022-11-13T18:45:24.414Z,8.91
2022-11-13T18:47:50.923Z,8.77
2022-11-13T18:50:17.417Z,9.02
2022-11-13T18:52:43.848Z,8.95
2022-11-13T18:55:10.316Z,8.86
2022-11-13T18:57:36.738Z,8.84
2022-11-13T19:00:04.374Z,8.80
2022-11-13T19:02:31.010Z,8.79
2022-11-13T19:04:58.562Z,9.11
2022-11-13T19:07:25.064Z,9.01
2022-11-13T19:09:51.576Z,8.87
2022-11-13T19:12:18.019Z,8.90
2022-11-13T19:14:44.486Z,8.97
2022-11-13T19:17:11.053Z,8.90
2022-11-13T19:19:37.803Z,8.88
2022-11-13T19:22:04.272Z,9.01
2022-11-13T19:24:30.746Z,8.98
2022-11-13T19:26:57.173Z,9.00
2022-11-13T19:29:23.567Z,8.94
2022-11-13T19:31:50.597Z,8.92
2022-11-13T19:34:17.115Z,8.97
2022-11-13T19:36:44.987Z,9.16
2022-11-13T19:39:12.018Z,9.06
2022-11-13T19:41:38.496Z,9.19
2022-11-13T19:44:06.445Z,9.07
2022-11-13T19:46:33.999Z,9.02
2022-11-13T19:49:00.439Z,9.13
2022-11-13T19:51:27.660Z,9.12
2022-11-13T19:53:56.307Z,9.17
2022-11-13T19:56:24.262Z,9.22
2022-11-13T19:58:51.871Z,9.18
2022-11-13T20:01:27.280Z,9.21
2022-11-13T20:04:04.573Z,9.20
2022-11-13T20:06:32.766Z,9.23
2022-11-13T20:09:00.542Z,9.39
2022-11-13T20:11:27.309Z,9.35
2022-11-13T20:13:55.362Z,9.22
2022-11-13T20:16:23.366Z,9.37
2022-11-13T20:18:50.790Z,9.24
2022-11-13T20:21:27.876Z,9.29
2022-11-13T20:23:58.766Z,9.34
2022-11-13T20:26:25.799Z,9.24
2022-11-13T20:28:52.286Z,9.38
2022-11-13T20:31:22.144Z,9.28
2022-11-13T20:33:54.036Z,9.19
2022-11-13T20:36:21.145Z,9.43
2022-11-13T20:38:53.438Z,9.24
2022-11-13T20:41:24.247Z,9.25
2022-11-13T20:43:52.271Z,9.26
2022-11-13T20:46:20.599Z,9.36
2022-11-13T20:48:47.576Z,9.19
2022-11-13T20:51:21.356Z,9.11
2022-11-13T20:53:49.059Z,9.09
2022-11-13T20:56:17.067Z,8.99
2022-11-13T20:58:43.684Z,8.94
2022-11-13T21:01:15.190Z,8.96
2022-11-13T21:03:43.417Z,9.35
2022-11-13T21:06:12.530Z,9.05
2022-11-13T21:08:39.250Z,9.39
2022-11-13T21:11:07.254Z,9.39
2022-11-13T21:13:34.124Z,9.14
2022-11-13T21:16:05.683Z,9.10
2022-11-13T21:18:32.341Z,9.06
2022-11-13T21:21:07.518Z,9.04
2022-11-13T21:23:34.365Z,9.13
2022-11-13T21:26:05.890Z,9.18
2022-11-13T21:28:33.964Z,9.08
2022-11-13T21:31:07.478Z,9.08
2022-11-13T21:33:38.494Z,9.02
2022-11-13T21:36:13.415Z,9.03
2022-11-13T21:38:40.294Z,9.06
2022-11-13T21:41:26.800Z,9.04
2022-11-13T21:44:04.614Z,9.09
2022-11-13T21:46:33.785Z,8.99
2022-11-13T21:49:08.855Z,9.12
2022-11-13T21:51:37.030Z,9.25
2022-11-13T21:54:04.180Z,9.26
2022-11-13T21:56:32.238Z,9.02
2022-11-13T21:58:58.876Z,8.96
2022-11-13T22:01:26.506Z,8.89
2022-11-13T22:03:53.792Z,8.99
2022-11-13T22:06:26.206Z,8.99
2022-11-13T22:09:01.066Z,9.13
2022-11-13T22:11:31.022Z,9.04
2022-11-13T22:13:57.655Z,9.08
2022-11-13T22:16:25.474Z,9.23
2022-11-13T22:18:53.428Z,8.89
2022-11-13T22:21:19.923Z,8.91
2022-11-13T22:23:46.443Z,9.03
2022-11-13T22:26:14.508Z,8.98
2022-11-13T22:28:42.752Z,8.89
2022-11-13T22:31:14.766Z,8.90
2022-11-13T22:33:44.974Z,9.00
2022-11-13T22:36:16.511Z,8.91
2022-11-13T22:38:44.358Z,8.99
2022-11-13T22:41:20.052Z,8.98
2022-11-13T22:43:52.125Z,8.89
2022-11-13T22:46:22.012Z,9.01
2022-11-13T22:48:50.055Z,8.94
2022-11-13T22:51:22.135Z,8.96
2022-11-13T22:54:00.179Z,8.86
2022-11-13T22:56:29.487Z,8.90
2022-11-13T22:58:57.783Z,8.78
2022-11-13T23:01:28.923Z,8.93
2022-11-13T23:03:56.719Z,8.98
2022-11-13T23:06:25.673Z,8.98
2022-11-13T23:08:53.071Z,8.94
2022-11-13T23:11:37.875Z,8.99
2022-11-13T23:14:06.274Z,9.08
2022-11-13T23:16:32.787Z,8.92
2022-11-13T23:19:01.086Z,9.04
2022-11-13T23:21:28.104Z,9.02
2022-11-13T23:23:55.554Z,9.05
2022-11-13T23:26:22.998Z,9.09
2022-11-13T23:28:49.513Z,9.13
2022-11-13T23:31:16.243Z,8.94
2022-11-13T23:33:42.739Z,8.90
2022-11-13T23:36:11.812Z,8.90
2022-11-13T23:38:38.432Z,8.98
2022-11-13T23:41:05.166Z,9.26
2022-11-13T23:43:54.261Z,9.18
2022-11-13T23:46:18.101Z,8.94
2022-11-13T23:48:44.530Z,8.89
2022-11-13T23:51:10.950Z,8.85
2022-11-13T23:53:37.460Z,9.16
2022-11-13T23:56:04.087Z,8.95
2022-11-13T23:58:32.479Z,9.00
